Time;durP1;ratioP1;P1;durP2;ratioP2;P2;SDS_P1;SDS_P2;PMS_P1;PMS_P2;Temp;Humidity;BMP_temperature;BMP_pressure;BME280_temperature;BME280_humidity;BME280_pressure;Samples;Min_cycle;Max_cycle;Signal;HPM_P1;HPM_P2
2021/10/29 00:01:56;329105.00;1.10;567.95;0.00;0.00;0.62;;;;;12.50;1.70;;;;;;2276964;60;978;-81
2021/10/29 00:04:23;583780.00;1.95;1006.22;0.00;0.00;0.62;;;;;12.50;1.00;;;;;;2276550;60;1000;-79
2021/10/29 00:06:50;320759.00;1.07;553.60;0.00;0.00;0.62;;;;;12.30;1.00;;;;;;2273254;61;1503;-79
2021/10/29 00:09:19;357144.00;1.19;616.14;0.00;0.00;0.62;;;;;13.10;1.00;;;;;;2273494;60;1093;-81
2021/10/29 00:11:46;362795.00;1.21;625.85;0.00;0.00;0.62;;;;;13.60;1.00;;;;;;2273272;61;1096;-80
2021/10/29 00:14:13;329081.00;1.10;567.91;0.00;0.00;0.62;;;;;13.80;1.00;;;;;;2266529;61;1032;-82
2021/10/29 00:16:57;420244.00;1.40;724.61;0.00;0.00;0.62;;;;;13.60;1.00;;;;;;2273225;61;1906;-80
2021/10/29 00:19:24;161495.00;0.54;279.62;0.00;0.00;0.62;;;;;14.00;1.00;;;;;;2273338;61;1024;-80
2021/10/29 00:21:51;12523.00;0.04;22.32;0.00;0.00;0.62;;;;;14.20;1.00;;;;;;2266630;61;942;-79
2021/10/29 00:24:21;9932.00;0.03;17.83;0.00;0.00;0.62;;;;;14.10;1.00;;;;;;2266588;61;962;-81
2021/10/29 00:26:48;22101.00;0.07;38.91;0.00;0.00;0.62;;;;;13.90;1.00;;;;;;2273251;61;1450;-79
2021/10/29 00:29:15;0.00;0.00;0.62;0.00;0.00;0.62;;;;;13.90;1.00;;;;;;2267945;60;1147;-81
2021/10/29 00:31:43;38428.00;0.13;67.17;0.00;0.00;0.62;;;;;13.80;1.00;;;;;;2273978;61;1000;-81
2021/10/29 00:34:10;0.00;0.00;0.62;0.00;0.00;0.62;;;;;13.80;1.00;;;;;;2277688;61;1016;-81
2021/10/29 00:36:37;0.00;0.00;0.62;0.00;0.00;0.62;;;;;14.10;1.00;;;;;;2277618;60;2000;-81
2021/10/29 00:39:05;42708.00;0.14;74.57;0.00;0.00;0.62;;;;;13.80;1.00;;;;;;2277383;60;1613;-80
2021/10/29 00:41:34;41732.00;0.14;72.88;0.00;0.00;0.62;;;;;13.10;1.00;;;;;;2273854;61;970;-82
2021/10/29 00:44:00;0.00;0.00;0.62;0.00;0.00;0.62;;;;;12.90;1.00;;;;;;2273936;61;1111;-79
2021/10/29 00:46:28;0.00;0.00;0.62;0.00;0.00;0.62;;;;;13.50;1.00;;;;;;2277166;60;1546;-82
2021/10/29 00:48:55;0.00;0.00;0.62;0.00;0.00;0.62;;;;;13.90;1.00;;;;;;2273857;61;958;-81
2021/10/29 00:51:23;3173.00;0.01;6.12;0.00;0.00;0.62;;;;;14.00;1.00;;;;;;2277679;60;1032;-81
2021/10/29 00:53:50;22926.00;0.08;40.34;0.00;0.00;0.62;;;;;14.10;1.00;;;;;;2277679;61;989;-79
2021/10/29 00:56:19;0.00;0.00;0.62;0.00;0.00;0.62;;;;;14.10;1.00;;;;;;2273750;61;1998;-80
2021/10/29 00:58:47;0.00;0.00;0.62;0.00;0.00;0.62;;;;;13.60;1.00;;;;;;2273841;61;1050;-80
2021/10/29 01:01:15;0.00;0.00;0.62;0.00;0.00;0.62;;;;;13.20;1.00;;;;;;2277253;60;1045;-81
2021/10/29 01:03:43;8411.00;0.03;15.20;0.00;0.00;0.62;;;;;13.40;1.00;;;;;;2277125;60;976;-80
2021/10/29 01:06:11;61551.00;0.21;107.16;0.00;0.00;0.62;;;;;13.20;1.00;;;;;;2276699;61;1383;-80
2021/10/29 01:08:39;24726.00;0.08;43.45;0.00;0.00;0.62;;;;;12.80;1.00;;;;;;2277621;60;1075;-80
2021/10/29 01:11:07;0.00;0.00;0.62;0.00;0.00;0.62;;;;;13.10;1.00;;;;;;2273796;60;951;-81
2021/10/29 01:13:34;0.00;0.00;0.62;0.00;0.00;0.62;;;;;13.40;1.00;;;;;;2273976;60;1004;-81
2021/10/29 01:16:02;40894.00;0.14;71.44;0.00;0.00;0.62;;;;;13.60;1.00;;;;;;2277490;60;1978;-81
2021/10/29 01:18:29;0.00;0.00;0.62;0.00;0.00;0.62;;;;;13.70;1.00;;;;;;2277491;61;1071;-82
2021/10/29 01:20:57;11437.00;0.04;20.44;0.00;0.00;0.62;;;;;13.70;1.00;;;;;;2277256;61;1072;-79
2021/10/29 01:23:24;12807.00;0.04;22.81;0.00;0.00;0.62;;;;;13.90;1.00;;;;;;2273670;61;1016;-77
2021/10/29 01:26:00;47818.00;0.16;83.41;0.00;0.00;0.62;;;;;13.10;1.00;;;;;;2277410;61;1035;-79
2021/10/29 01:28:27;158137.00;0.53;273.83;39938.00;0.13;69.78;;;;;12.30;1.00;;;;;;2277347;61;1578;-81
2021/10/29 01:30:54;64146.00;0.21;111.64;0.00;0.00;0.62;;;;;11.60;1.00;;;;;;2277376;61;1172;-79
2021/10/29 01:33:21;111857.00;0.37;194.03;25459.00;0.08;44.72;;;;;11.30;1.00;;;;;;2276438;60;1025;-81
2021/10/29 01:35:48;158725.00;0.53;274.84;0.00;0.00;0.62;;;;;11.60;1.00;;;;;;2277095;61;1980;-81
2021/10/29 01:38:17;62328.00;0.21;108.50;0.00;0.00;0.62;;;;;12.20;1.00;;;;;;2273579;61;1417;-80
2021/10/29 01:40:44;1919.00;0.01;3.95;0.00;0.00;0.62;;;;;12.60;1.00;;;;;;2277398;61;977;-80
2021/10/29 01:43:11;26351.00;0.09;46.27;0.00;0.00;0.62;;;;;12.70;1.00;;;;;;2273665;61;996;-78
2021/10/29 01:45:38;17605.00;0.06;31.12;0.00;0.00;0.62;;;;;12.90;1.00;;;;;;2272672;61;1052;-78
2021/10/29 01:48:05;101374.00;0.34;175.94;0.00;0.00;0.62;;;;;13.10;1.00;;;;;;2272877;61;1282;-79
2021/10/29 01:50:33;18875.00;0.06;33.32;0.00;0.00;0.62;;;;;13.10;1.00;;;;;;2272940;61;1025;-78
2021/10/29 01:52:59;0.00;0.00;0.62;0.00;0.00;0.62;;;;;12.80;1.00;;;;;;2266118;61;1080;-80
2021/10/29 01:55:28;517.00;0.00;1.52;0.00;0.00;0.62;;;;;12.60;1.00;;;;;;2272958;61;1098;-80
2021/10/29 01:57:56;68233.00;0.23;118.71;0.00;0.00;0.62;;;;;12.00;1.00;;;;;;2264699;61;1934;-79
2021/10/29 02:00:23;2008.00;0.01;4.10;0.00;0.00;0.62;;;;;11.80;1.00;;;;;;2261363;61;977;-78
2021/10/29 02:02:50;84005.00;0.28;145.95;0.00;0.00;0.62;;;;;12.30;1.00;;;;;;2259366;61;930;-80
2021/10/29 02:05:17;7613.00;0.03;13.81;0.00;0.00;0.62;;;;;13.00;1.20;;;;;;2272875;61;1245;-81
2021/10/29 02:07:44;29524.00;0.10;51.76;0.00;0.00;0.62;;;;;13.60;1.00;;;;;;2269476;61;1499;-81
2021/10/29 02:10:11;68987.00;0.23;120.01;0.00;0.00;0.62;;;;;14.10;1.00;;;;;;2260983;61;1076;-79
2021/10/29 02:12:39;28737.00;0.10;50.40;0.00;0.00;0.62;;;;;14.50;1.00;;;;;;2260939;61;1075;-83
2021/10/29 02:15:07;30442.00;0.10;53.35;0.00;0.00;0.62;;;;;14.70;1.00;;;;;;2261934;61;1067;-79
2021/10/29 02:17:34;0.00;0.00;0.62;0.00;0.00;0.62;;;;;14.70;1.00;;;;;;2262155;61;1990;-80
2021/10/29 02:20:01;27273.00;0.09;47.86;0.00;0.00;0.62;;;;;13.90;1.00;;;;;;2259080;61;971;-79
2021/10/29 02:22:28;9376.00;0.03;16.87;0.00;0.00;0.62;;;;;13.60;1.00;;;;;;2256816;61;962;-83
2021/10/29 02:24:55;31485.00;0.10;55.15;0.00;0.00;0.62;;;;;13.50;1.00;;;;;;2250310;61;996;-79
2021/10/29 02:27:22;43121.00;0.14;75.29;0.00;0.00;0.62;;;;;12.70;1.00;;;;;;2258320;61;1401;-79
2021/10/29 02:29:50;91055.00;0.30;158.13;0.00;0.00;0.62;;;;;12.70;1.00;;;;;;2261958;61;1017;-79
2021/10/29 02:32:17;0.00;0.00;0.62;0.00;0.00;0.62;;;;;12.50;1.00;;;;;;2258871;61;982;-82
2021/10/29 02:34:44;63970.00;0.21;111.34;0.00;0.00;0.62;;;;;12.80;1.00;;;;;;2261852;61;1010;-82
2021/10/29 02:37:11;0.00;0.00;0.62;0.00;0.00;0.62;;;;;13.40;1.00;;;;;;2261971;61;1919;-85
2021/10/29 02:39:37;0.00;0.00;0.62;0.00;0.00;0.62;;;;;13.70;1.00;;;;;;2262901;61;1064;-78
2021/10/29 02:44:51;5518.00;0.02;10.18;0.00;0.00;0.62;;;;;14.40;1.00;;;;;;2283391;60;1419;-83
2021/10/29 02:47:18;24324.00;0.08;42.76;0.00;0.00;0.62;;;;;14.60;1.00;;;;;;2275492;61;1850;-80
2021/10/29 02:49:45;16929.00;0.06;29.95;0.00;0.00;0.62;;;;;14.70;1.00;;;;;;2273904;61;942;-81
2021/10/29 02:52:12;3394.00;0.01;6.50;0.00;0.00;0.62;;;;;14.70;1.00;;;;;;2277241;61;930;-82
2021/10/29 02:54:39;196471.00;0.65;339.85;57040.00;0.19;99.36;;;;;14.70;1.00;;;;;;2277270;60;984;-84
2021/10/29 02:57:06;65521.00;0.22;114.02;0.00;0.00;0.62;;;;;14.70;1.00;;;;;;2273915;61;1922;-79
2021/10/29 02:59:34;0.00;0.00;0.62;0.00;0.00;0.62;;;;;14.40;1.00;;;;;;2281058;61;956;-80
2021/10/29 03:02:02;0.00;0.00;0.62;0.00;0.00;0.62;;;;;14.00;1.00;;;;;;2281012;61;1004;-83
2021/10/29 03:04:29;67173.00;0.22;116.88;0.00;0.00;0.62;;;;;13.70;1.00;;;;;;2280862;60;1007;-81
2021/10/29 03:06:56;4252.00;0.01;7.99;0.00;0.00;0.62;;;;;13.40;1.00;;;;;;2272229;61;1431;-82
2021/10/29 03:09:23;125976.00;0.42;218.39;28980.00;0.10;50.82;;;;;13.40;1.00;;;;;;2272303;61;990;-80
2021/10/29 03:11:50;45957.00;0.15;80.19;0.00;0.00;0.62;;;;;13.20;1.00;;;;;;2265606;61;1013;-80
2021/10/29 03:14:17;26126.00;0.09;45.88;0.00;0.00;0.62;;;;;13.20;1.00;;;;;;2272425;61;1060;-81
2021/10/29 03:16:44;43799.00;0.15;76.46;0.00;0.00;0.62;;;;;13.30;1.00;;;;;;2268877;61;2004;-82
2021/10/29 03:19:12;40952.00;0.14;71.54;0.00;0.00;0.62;;;;;13.40;1.00;;;;;;2268883;61;993;-79
2021/10/29 03:21:40;0.00;0.00;0.62;0.00;0.00;0.62;;;;;13.60;1.00;;;;;;2272416;61;1003;-81
2021/10/29 03:24:07;37445.00;0.12;65.47;0.00;0.00;0.62;;;;;13.80;1.00;;;;;;2273425;60;1096;-79
2021/10/29 03:26:34;13138.00;0.04;23.39;0.00;0.00;0.62;;;;;14.00;1.00;;;;;;2280190;60;1269;-82
2021/10/29 03:29:02;75331.00;0.25;130.97;0.00;0.00;0.62;;;;;14.30;1.00;;;;;;2273778;60;982;-82
2021/10/29 03:31:29;59579.00;0.20;103.75;0.00;0.00;0.62;;;;;14.40;1.00;;;;;;2276947;60;1063;-81
2021/10/29 03:33:56;73031.00;0.24;127.00;0.00;0.00;0.62;;;;;14.10;1.00;;;;;;2280714;60;1080;-80
2021/10/29 03:36:24;69973.00;0.23;121.71;0.00;0.00;0.62;;;;;13.70;1.00;;;;;;2273533;60;1927;-81
2021/10/29 03:38:57;0.00;0.00;0.62;0.00;0.00;0.62;;;;;13.50;1.00;;;;;;2280758;60;1166;-80
2021/10/29 03:41:26;0.00;0.00;0.62;0.00;0.00;0.62;;;;;13.30;1.00;;;;;;2273751;60;1055;-80
2021/10/29 03:43:56;7022.00;0.02;12.79;0.00;0.00;0.62;;;;;13.00;1.00;;;;;;2271662;61;968;-80
2021/10/29 03:46:25;73197.00;0.24;127.28;0.00;0.00;0.62;;;;;13.10;1.00;;;;;;2271977;61;1411;-79
2021/10/29 03:49:00;51265.00;0.17;89.37;0.00;0.00;0.62;;;;;13.50;1.00;;;;;;2272097;61;1036;-80
2021/10/29 03:51:32;51799.00;0.17;90.30;0.00;0.00;0.62;;;;;13.40;1.00;;;;;;2268067;61;966;-78
2021/10/29 03:54:03;248641.00;0.83;429.61;65562.00;0.22;114.09;;;;;12.90;1.00;;;;;;2261568;61;993;-79
2021/10/29 03:56:41;82679.00;0.28;143.66;0.00;0.00;0.62;;;;;12.40;1.00;;;;;;2267997;61;1914;-83
2021/10/29 03:59:11;50470.00;0.17;88.00;0.00;0.00;0.62;;;;;12.10;1.00;;;;;;2268122;61;1019;-79
2021/10/29 04:01:38;42294.00;0.14;73.86;0.00;0.00;0.62;;;;;12.20;1.00;;;;;;2261422;61;989;-80
2021/10/29 04:04:05;51612.00;0.17;89.97;0.00;0.00;0.62;;;;;12.00;1.00;;;;;;2267623;61;1072;-81
2021/10/29 04:06:33;22670.00;0.08;39.89;0.00;0.00;0.62;;;;;12.50;1.00;;;;;;2268038;61;1324;-79
2021/10/29 04:09:00;19833.00;0.07;34.98;0.00;0.00;0.62;;;;;12.60;1.00;;;;;;2264429;61;1034;-81
2021/10/29 04:11:34;24912.00;0.08;43.78;0.00;0.00;0.62;;;;;12.70;1.00;;;;;;2271971;61;1021;-81
2021/10/29 04:14:01;0.00;0.00;0.62;0.00;0.00;0.62;;;;;12.70;1.00;;;;;;2265450;61;1004;-81
2021/10/29 04:16:30;3778.00;0.01;7.17;0.00;0.00;0.62;;;;;12.70;1.00;;;;;;2278188;61;2000;-80
2021/10/29 04:18:57;35065.00;0.12;61.35;0.00;0.00;0.62;;;;;12.70;1.00;;;;;;2276077;61;1021;-81
2021/10/29 04:21:24;0.00;0.00;0.62;0.00;0.00;0.62;;;;;12.90;1.00;;;;;;2269376;61;957;-83
2021/10/29 04:23:52;100176.00;0.33;173.88;0.00;0.00;0.62;;;;;12.50;1.00;;;;;;2276187;61;1024;-82
2021/10/29 04:26:19;99395.00;0.33;172.53;0.00;0.00;0.62;;;;;12.60;1.00;;;;;;2272806;61;1349;-79
2021/10/29 04:28:51;193698.00;0.65;335.08;36369.00;0.12;63.61;;;;;12.40;1.00;;;;;;2272757;61;1000;-81
2021/10/29 04:31:21;7263.00;0.02;13.21;0.00;0.00;0.62;;;;;12.00;1.00;;;;;;2269403;61;983;-80
2021/10/29 04:33:48;81531.00;0.27;141.68;0.00;0.00;0.62;;;;;11.50;1.00;;;;;;2268835;61;1016;-80
2021/10/29 04:36:15;44896.00;0.15;78.36;0.00;0.00;0.62;;;;;11.30;1.00;;;;;;2276699;60;1291;-81
2021/10/29 04:38:42;55950.00;0.19;97.47;0.00;0.00;0.62;;;;;11.50;1.00;;;;;;2273539;60;1924;-82
2021/10/29 04:41:10;55542.00;0.19;96.77;0.00;0.00;0.62;;;;;11.60;1.00;;;;;;2276778;60;962;-80
2021/10/29 04:43:38;82777.00;0.28;143.83;0.00;0.00;0.62;;;;;11.30;1.00;;;;;;2280603;60;984;-80
2021/10/29 04:46:05;125639.00;0.42;217.81;0.00;0.00;0.62;;;;;10.90;1.00;;;;;;2273546;60;1448;-79
2021/10/29 04:48:32;77455.00;0.26;134.64;0.00;0.00;0.62;;;;;10.60;1.00;;;;;;2270301;60;1031;-80
2021/10/29 04:50:59;119390.00;0.40;207.03;0.00;0.00;0.62;;;;;10.80;1.00;;;;;;2273498;60;1016;-81
2021/10/29 04:53:26;31093.00;0.10;54.47;0.00;0.00;0.62;;;;;10.10;1.00;;;;;;2272049;61;920;-80
2021/10/29 04:55:53;23719.00;0.08;41.71;0.00;0.00;0.62;;;;;10.60;1.00;;;;;;2272135;61;1016;-81
2021/10/29 04:58:21;64257.00;0.21;111.84;0.00;0.00;0.62;;;;;10.60;1.00;;;;;;2262724;61;2008;-79
2021/10/29 05:00:48;24865.00;0.08;43.69;0.00;0.00;0.62;;;;;10.50;1.00;;;;;;2260504;61;938;-79
2021/10/29 05:03:15;76682.00;0.26;133.31;0.00;0.00;0.62;;;;;10.60;1.00;;;;;;2253981;61;961;-82
2021/10/29 05:05:42;5567.00;0.02;10.27;0.00;0.00;0.62;;;;;10.90;2.40;;;;;;2259970;61;1151;-79
2021/10/29 05:08:09;66055.00;0.22;114.94;0.00;0.00;0.62;;;;;11.60;1.00;;;;;;2253978;61;1448;-79
2021/10/29 05:10:36;7445.00;0.02;13.52;0.00;0.00;0.62;;;;;11.10;3.70;;;;;;2254951;60;994;-80
2021/10/29 05:13:03;112552.00;0.38;195.23;0.00;0.00;0.62;;;;;11.50;2.90;;;;;;2268567;61;1658;-79
2021/10/29 05:15:32;40185.00;0.13;70.21;0.00;0.00;0.62;;;;;11.80;1.00;;;;;;2268716;61;1793;-81
2021/10/29 05:18:00;159843.00;0.53;276.77;0.00;0.00;0.62;;;;;11.90;1.00;;;;;;2270021;60;1982;-78
2021/10/29 05:20:27;109183.00;0.36;189.42;0.00;0.00;0.62;;;;;11.10;1.00;;;;;;2281159;60;1781;-81
2021/10/29 05:22:54;21958.00;0.07;38.66;0.00;0.00;0.62;;;;;10.70;1.00;;;;;;2277387;60;924;-80
2021/10/29 05:25:21;6651.00;0.02;12.15;0.00;0.00;0.62;;;;;10.90;1.00;;;;;;2274130;60;1085;-79
2021/10/29 05:27:48;25447.00;0.08;44.70;0.00;0.00;0.62;;;;;10.70;1.00;;;;;;2274050;60;1328;-81
2021/10/29 05:30:15;65784.00;0.22;114.47;0.00;0.00;0.62;;;;;10.80;1.00;;;;;;2281270;60;958;-80
2021/10/29 05:32:43;65474.00;0.22;113.94;0.00;0.00;0.62;;;;;11.40;1.70;;;;;;2270472;60;1005;-82
2021/10/29 05:35:10;39044.00;0.13;68.23;0.00;0.00;0.62;;;;;11.80;1.00;;;;;;2270739;60;989;-80
2021/10/29 05:37:37;168599.00;0.56;291.85;44260.00;0.15;77.26;;;;;11.90;1.00;;;;;;2273675;60;1985;-80
2021/10/29 05:40:06;113361.00;0.38;196.63;32707.00;0.11;57.27;;;;;12.10;1.00;;;;;;2281116;60;1070;-81
2021/10/29 05:42:34;24466.00;0.08;43.00;0.00;0.00;0.62;;;;;12.20;1.00;;;;;;2281000;60;988;-80
2021/10/29 05:45:02;38044.00;0.13;66.50;0.00;0.00;0.62;;;;;12.00;1.00;;;;;;2277219;60;1086;-80
2021/10/29 05:47:29;7177.00;0.02;13.06;0.00;0.00;0.62;;;;;11.50;1.00;;;;;;2281084;60;1438;-78
2021/10/29 05:49:58;81604.00;0.27;141.81;0.00;0.00;0.62;;;;;11.60;1.00;;;;;;2276959;60;1036;-79
2021/10/29 05:52:27;56317.00;0.19;98.11;0.00;0.00;0.62;;;;;11.60;1.00;;;;;;2274101;60;952;-82
2021/10/29 05:55:14;12896.00;0.04;22.97;0.00;0.00;0.62;;;;;11.90;1.00;;;;;;2280959;60;1277;-80
2021/10/29 05:57:41;61764.00;0.21;107.53;0.00;0.00;0.62;;;;;11.40;1.00;;;;;;2280941;60;1910;-81
2021/10/29 06:00:10;23098.00;0.08;40.63;0.00;0.00;0.62;;;;;11.40;1.00;;;;;;2270394;60;972;-79
2021/10/29 06:02:37;103874.00;0.35;180.26;0.00;0.00;0.62;;;;;11.40;1.00;;;;;;2277194;60;974;-78
2021/10/29 06:05:06;68729.00;0.23;119.56;0.00;0.00;0.62;;;;;11.20;1.00;;;;;;2273906;60;1009;-79
2021/10/29 06:07:33;77587.00;0.26;134.87;0.00;0.00;0.62;;;;;11.50;1.00;;;;;;2277005;60;1347;-79
2021/10/29 06:10:00;73965.00;0.25;128.61;0.00;0.00;0.62;;;;;11.80;1.00;;;;;;2277279;60;1005;-81
2021/10/29 06:12:27;329040.00;1.10;567.84;78777.00;0.26;136.92;;;;;11.70;1.00;;;;;;2270394;61;978;-81
2021/10/29 06:14:54;27196.00;0.09;47.73;0.00;0.00;0.62;;;;;12.30;1.00;;;;;;2273960;60;1064;-79
2021/10/29 06:17:21;30717.00;0.10;53.82;0.00;0.00;0.62;;;;;12.70;1.00;;;;;;2276161;61;1992;-82
2021/10/29 06:19:48;171136.00;0.57;296.22;0.00;0.00;0.62;;;;;13.20;1.00;;;;;;2275643;61;1045;-80
2021/10/29 06:22:21;11224.00;0.04;20.07;0.00;0.00;0.62;;;;;13.40;1.00;;;;;;2272933;61;1024;-78
2021/10/29 06:24:48;131968.00;0.44;228.72;0.00;0.00;0.62;;;;;13.00;1.00;;;;;;2272278;61;903;-81
2021/10/29 06:30:09;49885.00;0.17;86.99;0.00;0.00;0.62;;;;;12.80;1.00;;;;;;2272520;61;1020;-81
2021/10/29 06:32:38;29422.00;0.10;51.58;0.00;0.00;0.62;;;;;12.90;1.00;;;;;;2272213;61;1184;-80
2021/10/29 06:35:06;0.00;0.00;0.62;0.00;0.00;0.62;;;;;12.50;1.00;;;;;;2273831;61;1040;-78
2021/10/29 06:37:36;109046.00;0.36;189.18;42224.00;0.14;73.74;;;;;12.80;1.00;;;;;;2269668;61;1911;-81
2021/10/29 06:40:03;76530.00;0.26;133.04;0.00;0.00;0.62;;;;;12.90;1.00;;;;;;2266441;61;973;-80
2021/10/29 06:42:34;291573.00;0.97;503.43;78430.00;0.26;136.33;;;;;12.60;1.00;;;;;;2267932;60;954;-80
2021/10/29 06:45:15;5026.00;0.02;9.33;0.00;0.00;0.62;;;;;12.50;1.00;;;;;;2273845;60;930;-79
2021/10/29 06:47:47;31434.00;0.10;55.07;0.00;0.00;0.62;;;;;12.80;1.00;;;;;;2280941;60;1455;-81
2021/10/29 07:01:17;11051.00;0.04;19.77;0.00;0.00;0.62;;;;;13.20;1.00;;;;;;2280903;60;735;-79
2021/10/29 07:12:44;18426.00;0.06;32.54;0.00;0.00;0.62;;;;;13.60;1.00;;;;;;2280848;60;644;-78
2021/10/29 07:40:07;27915.00;0.09;48.97;0.00;0.00;0.62;;;;;12.10;1.00;;;;;;2280832;60;604;-80
2021/10/29 07:42:41;86083.00;0.29;149.54;0.00;0.00;0.62;;;;;12.00;1.00;;;;;;2280314;60;982;-79
2021/10/29 07:45:10;65805.00;0.22;114.51;0.00;0.00;0.62;;;;;12.40;1.00;;;;;;2282585;60;1040;-78
2021/10/29 07:47:40;8358.00;0.03;15.10;0.00;0.00;0.62;;;;;12.90;1.00;;;;;;2270500;60;1409;-80
2021/10/29 07:50:09;3837.00;0.01;7.27;0.00;0.00;0.62;;;;;13.00;1.00;;;;;;2279853;60;1005;-80
2021/10/29 07:52:36;143167.00;0.48;248.03;20726.00;0.07;36.53;;;;;13.30;1.00;;;;;;2267937;61;983;-80
2021/10/29 07:55:03;9972.00;0.03;17.90;0.00;0.00;0.62;;;;;13.10;1.00;;;;;;2263938;61;951;-78
2021/10/29 07:57:30;23284.00;0.08;40.96;0.00;0.00;0.62;;;;;13.00;1.00;;;;;;2264032;61;2000;-79
2021/10/29 07:59:59;11971.00;0.04;21.36;0.00;0.00;0.62;;;;;13.20;1.00;;;;;;2264174;61;1018;-80
2021/10/29 08:02:26;54625.00;0.18;95.18;0.00;0.00;0.62;;;;;13.50;1.00;;;;;;2257452;61;940;-80
2021/10/29 08:04:54;23910.00;0.08;42.04;0.00;0.00;0.62;;;;;13.50;1.00;;;;;;2264191;61;1032;-80
2021/10/29 08:07:21;2162.00;0.01;4.37;0.00;0.00;0.62;;;;;14.00;1.00;;;;;;2260725;61;1375;-80
2021/10/29 08:09:48;59674.00;0.20;103.91;0.00;0.00;0.62;;;;;13.90;1.00;;;;;;2258995;61;1010;-79
2021/10/29 08:12:16;31674.00;0.11;55.48;0.00;0.00;0.62;;;;;13.90;1.00;;;;;;2264528;61;955;-81
2021/10/29 08:14:44;12316.00;0.04;21.96;0.00;0.00;0.62;;;;;14.30;1.00;;;;;;2262941;61;986;-79
2021/10/29 08:17:12;3782.00;0.01;7.17;0.00;0.00;0.62;;;;;14.00;1.00;;;;;;2263959;61;1296;-80
2021/10/29 08:19:41;0.00;0.00;0.62;0.00;0.00;0.62;;;;;13.80;1.00;;;;;;2257216;61;1935;-79
2021/10/29 08:22:07;0.00;0.00;0.62;0.00;0.00;0.62;;;;;13.30;1.00;;;;;;2263881;61;1760;-79
2021/10/29 08:24:37;75042.00;0.25;130.47;0.00;0.00;0.62;;;;;13.30;1.00;;;;;;2264061;61;1056;-79
2021/10/29 08:27:05;27788.00;0.09;48.75;0.00;0.00;0.62;;;;;13.20;1.00;;;;;;2260467;61;1452;-80
2021/10/29 08:29:32;15148.00;0.05;26.87;0.00;0.00;0.62;;;;;13.50;1.00;;;;;;2262560;61;1025;-80
2021/10/29 08:32:00;144283.00;0.48;249.95;54442.00;0.18;94.87;;;;;13.90;1.00;;;;;;2273980;60;1027;-80
2021/10/29 08:34:30;440492.00;1.47;759.43;211430.00;0.70;365.60;;;;;14.40;1.00;;;;;;2274339;60;962;-82
2021/10/29 08:36:59;335926.00;1.12;579.67;66659.00;0.22;115.99;;;;;14.50;1.00;;;;;;2274174;60;1455;-80
2021/10/29 08:39:27;22502.00;0.08;39.60;0.00;0.00;0.62;;;;;14.80;1.00;;;;;;2270924;60;1923;-77
2021/10/29 08:41:55;18997.00;0.06;33.53;0.00;0.00;0.62;;;;;14.70;1.00;;;;;;2274413;60;966;-78
2021/10/29 08:44:23;140475.00;0.47;243.39;0.00;0.00;0.62;;;;;14.80;1.00;;;;;;2274267;60;983;-79
2021/10/29 08:46:51;144735.00;0.48;250.73;0.00;0.00;0.62;;;;;14.30;1.00;;;;;;2274139;61;1298;-79
2021/10/29 08:49:19;276360.00;0.92;477.28;0.00;0.00;0.62;;;;;14.90;1.00;;;;;;2276815;61;919;-79
2021/10/29 08:51:49;188285.00;0.63;325.76;0.00;0.00;0.62;;;;;15.10;1.00;;;;;;2268694;61;1060;-79
2021/10/29 08:54:16;150918.00;0.50;261.39;0.00;0.00;0.62;;;;;15.50;1.00;;;;;;2268745;61;854;-79
2021/10/29 08:56:43;151176.00;0.50;261.83;0.00;0.00;0.62;;;;;15.30;1.00;;;;;;2268693;61;1459;-79
2021/10/29 08:59:14;368425.00;1.23;635.53;29974.00;0.10;52.54;;;;;15.50;1.00;;;;;;2268693;61;1912;-81
2021/10/29 09:01:57;20234.00;0.07;35.68;0.00;0.00;0.62;;;;;15.60;1.00;;;;;;2265345;61;1077;-80
2021/10/29 09:04:36;37623.00;0.13;65.78;0.00;0.00;0.62;;;;;15.90;1.00;;;;;;2265461;61;1056;-80
2021/10/29 09:07:18;24062.00;0.08;42.30;0.00;0.00;0.62;;;;;15.80;1.00;;;;;;2264202;61;1401;-79
2021/10/29 09:32:26;21693.00;0.07;38.20;0.00;0.00;0.62;;;;;14.00;1.00;;;;;;2267680;61;1987;-79
2021/10/29 09:35:01;321960.00;1.07;555.67;65983.00;0.22;114.82;;;;;14.20;1.00;;;;;;2267686;61;1014;-81
2021/10/29 09:37:54;0.00;0.00;0.62;0.00;0.00;0.62;;;;;14.50;1.00;;;;;;2267637;61;1392;-78
2021/10/29 09:40:22;58190.00;0.19;101.35;0.00;0.00;0.62;;;;;15.20;1.00;;;;;;2267687;61;942;-80
2021/10/29 09:42:50;22630.00;0.08;39.82;0.00;0.00;0.62;;;;;15.10;1.00;;;;;;2267864;61;998;-79
2021/10/29 09:45:22;28833.00;0.10;50.56;0.00;0.00;0.62;;;;;15.60;1.00;;;;;;2267660;61;1112;-80
2021/10/29 09:48:07;1555.00;0.01;3.32;0.00;0.00;0.62;;;;;15.90;1.00;;;;;;2267639;61;1436;-83
2021/10/29 09:50:37;71451.00;0.24;124.27;0.00;0.00;0.62;;;;;16.00;1.00;;;;;;2263536;61;1915;-82
2021/10/29 09:53:12;68145.00;0.23;118.55;0.00;0.00;0.62;;;;;16.60;1.00;;;;;;2264410;61;1045;-83
2021/10/29 09:55:54;71495.00;0.24;124.34;0.00;0.00;0.62;;;;;16.20;1.00;;;;;;2263433;61;943;-82
2021/10/29 09:58:23;159332.00;0.53;275.89;0.00;0.00;0.62;;;;;15.80;1.00;;;;;;2260412;61;1323;-82
2021/10/29 10:00:52;0.00;0.00;0.62;0.00;0.00;0.62;;;;;15.90;1.00;;;;;;2263789;61;1033;-83
2021/10/29 10:03:22;106103.00;0.35;184.11;0.00;0.00;0.62;;;;;16.20;1.00;;;;;;2263588;61;1021;-79
2021/10/29 10:05:52;36946.00;0.12;64.60;0.00;0.00;0.62;;;;;16.40;1.00;;;;;;2253783;61;997;-83
2021/10/29 10:08:21;67682.00;0.23;117.75;0.00;0.00;0.62;;;;;16.80;1.00;;;;;;2254606;61;1399;-84
2021/10/29 10:11:01;56771.00;0.19;98.89;0.00;0.00;0.62;;;;;17.20;1.00;;;;;;2255564;61;1988;-83
2021/10/29 10:13:29;255758.00;0.85;441.85;0.00;0.00;0.62;;;;;17.20;1.00;;;;;;2249201;61;1045;-80
2021/10/29 10:16:01;0.00;0.00;0.62;0.00;0.00;0.62;;;;;17.10;1.00;;;;;;2247747;61;922;-83
2021/10/29 10:18:29;260583.00;0.87;450.15;0.00;0.00;0.62;;;;;17.30;1.00;;;;;;2247826;61;1027;-82
2021/10/29 10:20:58;212676.00;0.71;367.74;48772.00;0.16;85.06;;;;;17.30;1.00;;;;;;2244381;61;962;-83
2021/10/29 10:23:31;155470.00;0.52;269.23;0.00;0.00;0.62;;;;;17.10;1.00;;;;;;2245621;61;1073;-83
2021/10/29 10:46:18;54674.00;0.18;95.27;0.00;0.00;0.62;;;;;16.40;1.00;;;;;;2240753;62;1320;-83
2021/10/29 10:48:51;41319.00;0.14;72.17;0.00;0.00;0.62;;;;;16.10;1.00;;;;;;2240752;62;1101;-84
2021/10/29 10:54:26;240608.00;0.80;415.80;87338.00;0.29;151.71;;;;;16.80;1.00;;;;;;2236729;62;1031;-81
2021/10/29 10:59:59;99535.00;0.33;172.77;0.00;0.00;0.62;;;;;16.70;1.00;;;;;;2232891;62;1096;-82
2021/10/29 11:05:32;227215.00;0.76;392.76;0.00;0.00;0.62;;;;;16.90;1.00;;;;;;2222226;62;1027;-82
2021/10/29 11:11:19;30444.00;0.10;53.35;0.00;0.00;0.62;;;;;17.10;1.00;;;;;;2229022;62;1935;-82
2021/10/29 11:13:59;46529.00;0.16;81.18;0.00;0.00;0.62;;;;;17.20;1.00;;;;;;2225701;62;975;-78
2021/10/29 11:16:35;12998.00;0.04;23.14;0.00;0.00;0.62;;;;;17.40;1.00;;;;;;2228970;62;1398;-79
2021/10/29 11:19:06;46496.00;0.15;81.13;0.00;0.00;0.62;;;;;17.20;1.00;;;;;;2230856;62;1163;-82
2021/10/29 11:21:45;50861.00;0.17;88.68;0.00;0.00;0.62;;;;;17.10;1.00;;;;;;2232947;62;1265;-84
2021/10/29 11:24:14;145118.00;0.48;251.39;0.00;0.00;0.62;;;;;17.10;1.00;;;;;;2225293;62;985;-81
2021/10/29 11:26:43;106017.00;0.35;183.96;0.00;0.00;0.62;;;;;17.60;1.00;;;;;;2221158;62;1280;-81
2021/10/29 11:29:11;0.00;0.00;0.62;0.00;0.00;0.62;;;;;17.60;1.00;;;;;;2221095;62;1037;-81
2021/10/29 11:31:44;69801.00;0.23;121.42;0.00;0.00;0.62;;;;;17.90;1.00;;;;;;2214734;62;2006;-81
2021/10/29 11:34:14;12528.00;0.04;22.33;0.00;0.00;0.62;;;;;18.10;1.00;;;;;;2211378;62;952;-81
2021/10/29 11:36:47;96976.00;0.32;168.35;0.00;0.00;0.62;;;;;18.00;1.00;;;;;;2225504;62;1427;-82
2021/10/29 11:39:15;51459.00;0.17;89.71;0.00;0.00;0.62;;;;;18.20;1.00;;;;;;2228876;62;984;-84
2021/10/29 11:41:45;48454.00;0.16;84.51;0.00;0.00;0.62;;;;;18.90;1.00;;;;;;2232288;61;1148;-83
2021/10/29 11:44:17;10309.00;0.03;18.48;0.00;0.00;0.62;;;;;19.10;1.00;;;;;;2246828;61;1255;-80
2021/10/29 11:46:46;103980.00;0.35;180.44;0.00;0.00;0.62;;;;;19.00;1.00;;;;;;2263101;61;1341;-82
2021/10/29 11:49:15;156122.00;0.52;270.36;0.00;0.00;0.62;;;;;18.90;1.00;;;;;;2260287;61;1178;-81
2021/10/29 11:51:45;59802.00;0.20;104.13;0.00;0.00;0.62;;;;;18.50;1.00;;;;;;2260234;61;2014;-82
2021/10/29 11:54:17;17071.00;0.06;30.20;0.00;0.00;0.62;;;;;18.00;1.00;;;;;;2263229;61;1731;-79
2021/10/29 11:56:52;68248.00;0.23;118.73;0.00;0.00;0.62;;;;;18.70;1.00;;;;;;2272509;61;1310;-81
2021/10/29 12:07:42;42678.00;0.14;74.52;0.00;0.00;0.62;;;;;19.10;1.00;;;;;;2264312;61;1456;-82
2021/10/29 12:10:13;22503.00;0.08;39.60;0.00;0.00;0.62;;;;;19.00;1.00;;;;;;2264176;61;1245;-83
2021/10/29 12:12:42;63495.00;0.21;110.52;0.00;0.00;0.62;;;;;18.90;1.00;;;;;;2264167;61;1993;-81
2021/10/29 12:15:14;30634.00;0.10;53.68;0.00;0.00;0.62;;;;;18.90;1.00;;;;;;2264046;61;1549;-82